OIZC

Konorak Airport

Airport
ICAO code
OIZC
IATA Code
ZBR
Summary
ICAO Region
MID
ICAO Territory
Location

Konorak, Baluchistan

Serving
Chabahar
Elevation
43 ft
Coordinates
25° 26' 12" N , 60° 22' 47" E
KCC
Metar
Observation
OIZC 032300Z 00000KT 6000 NSC 16/10 Q1013
Station
Chahbahar
Date/Time
2022-12-03 23:00:00
Wind direction
Wind speed
00 kts
Lowest cloud amount
nil significant cloud
Temperature
16°C
Dew point
10°C
Humidity
67%
QNH
1013 hPa
Weather condition
n/a

Airport serving Chabahar, Sistan and the Baluchistan province in Iran.

Climatology

Hot desert climate (Köppen climate classification BWh).

Runways

Designator Length Width Surface Rops
09R/27L 3000 46 ASP No/No
09L/27R 3814 46 ASP No/No

Airport map

Aerial View

SKYbrary Partners:

Safety knowledge contributed by: